UIR weather

Quirindi Airport
New South Wales, Australia

Public forecast

Using degrees Celsius for public forecast. Weather courtesy of forecast.io.

METAR (pilot weather report)

Closest report is Tamworth Airport, 29.8 nm (55.2 km) NE. Retrieved 2019/04/25 13:30 UTC (1 minute ago):

YSTW 251330Z AUTO 16009KT 9999 // NCD 16/08 Q1019 RF00.0/000.0

TAF (pilot weather forecast)

Closest forecast is Tamworth Airport, 29.8 nm (55.2 km) NE. Retrieved 2019/04/25 12:36 UTC (55 minutes ago):

TAF YSTW 251059Z 2512/2606 VRB05KT CAVOK FM251500 06008KT CAVOK FM252300 32008KT CAVOK FM260300 26012KT CAVOK